sensor_id;sensor_type;location;lat;lon;timestamp;P1;durP1;ratioP1;P2;durP2;ratioP2
72065;SDS011;59939;52.516;13.420;2023-06-19T00:02:36;20.38;;;13.32;;
72065;SDS011;59939;52.516;13.420;2023-06-19T00:05:42;21.17;;;13.27;;
72065;SDS011;59939;52.516;13.420;2023-06-19T00:08:47;20.85;;;12.93;;
72065;SDS011;59939;52.516;13.420;2023-06-19T00:11:58;19.15;;;12.63;;
72065;SDS011;59939;52.516;13.420;2023-06-19T00:15:03;24.88;;;13.63;;
72065;SDS011;59939;52.516;13.420;2023-06-19T00:18:07;20.60;;;12.95;;
72065;SDS011;59939;52.516;13.420;2023-06-19T00:21:12;20.55;;;13.05;;
72065;SDS011;59939;52.516;13.420;2023-06-19T00:24:23;22.90;;;16.02;;
72065;SDS011;59939;52.516;13.420;2023-06-19T00:27:27;19.60;;;13.10;;
72065;SDS011;59939;52.516;13.420;2023-06-19T00:30:35;21.15;;;13.93;;
72065;SDS011;59939;52.516;13.420;2023-06-19T00:33:39;20.23;;;12.95;;
72065;SDS011;59939;52.516;13.420;2023-06-19T00:36:45;20.50;;;14.13;;
72065;SDS011;59939;52.516;13.420;2023-06-19T00:39:51;20.48;;;14.45;;
72065;SDS011;59939;52.516;13.420;2023-06-19T00:42:55;20.50;;;14.05;;
72065;SDS011;59939;52.516;13.420;2023-06-19T00:45:59;20.15;;;13.80;;
72065;SDS011;59939;52.516;13.420;2023-06-19T00:49:11;19.70;;;13.68;;
72065;SDS011;59939;52.516;13.420;2023-06-19T00:52:17;20.92;;;15.00;;
72065;SDS011;59939;52.516;13.420;2023-06-19T00:55:22;23.90;;;16.48;;
72065;SDS011;59939;52.516;13.420;2023-06-19T00:58:27;21.42;;;15.00;;
72065;SDS011;59939;52.516;13.420;2023-06-19T01:01:38;20.90;;;14.10;;
72065;SDS011;59939;52.516;13.420;2023-06-19T01:04:43;22.08;;;14.98;;
72065;SDS011;59939;52.516;13.420;2023-06-19T01:08:00;19.92;;;14.15;;
72065;SDS011;59939;52.516;13.420;2023-06-19T01:11:06;21.13;;;14.38;;
72065;SDS011;59939;52.516;13.420;2023-06-19T01:14:17;20.40;;;13.73;;
72065;SDS011;59939;52.516;13.420;2023-06-19T01:17:22;20.10;;;14.18;;
72065;SDS011;59939;52.516;13.420;2023-06-19T01:20:27;23.90;;;15.00;;
72065;SDS011;59939;52.516;13.420;2023-06-19T01:23:34;22.27;;;16.25;;
72065;SDS011;59939;52.516;13.420;2023-06-19T01:26:41;18.98;;;13.35;;
72065;SDS011;59939;52.516;13.420;2023-06-19T01:29:53;22.90;;;15.23;;
72065;SDS011;59939;52.516;13.420;2023-06-19T01:33:03;24.20;;;14.55;;
72065;SDS011;59939;52.516;13.420;2023-06-19T01:36:08;22.52;;;15.15;;
72065;SDS011;59939;52.516;13.420;2023-06-19T01:39:15;22.33;;;15.15;;
72065;SDS011;59939;52.516;13.420;2023-06-19T01:42:20;24.83;;;15.00;;
72065;SDS011;59939;52.516;13.420;2023-06-19T01:45:24;21.58;;;14.75;;
72065;SDS011;59939;52.516;13.420;2023-06-19T01:48:28;20.95;;;14.75;;
72065;SDS011;59939;52.516;13.420;2023-06-19T01:51:32;21.30;;;14.93;;
72065;SDS011;59939;52.516;13.420;2023-06-19T01:54:39;22.08;;;15.55;;
72065;SDS011;59939;52.516;13.420;2023-06-19T01:57:45;21.85;;;15.43;;
72065;SDS011;59939;52.516;13.420;2023-06-19T02:00:53;22.48;;;15.50;;
72065;SDS011;59939;52.516;13.420;2023-06-19T02:03:57;21.50;;;15.52;;
72065;SDS011;59939;52.516;13.420;2023-06-19T02:07:01;22.48;;;16.33;;
72065;SDS011;59939;52.516;13.420;2023-06-19T02:10:08;20.92;;;15.43;;
72065;SDS011;59939;52.516;13.420;2023-06-19T02:13:16;22.13;;;13.60;;
72065;SDS011;59939;52.516;13.420;2023-06-19T02:16:27;21.52;;;14.77;;
72065;SDS011;59939;52.516;13.420;2023-06-19T02:19:31;22.15;;;15.77;;
72065;SDS011;59939;52.516;13.420;2023-06-19T02:22:35;22.50;;;15.35;;
72065;SDS011;59939;52.516;13.420;2023-06-19T02:25:40;21.73;;;16.17;;
72065;SDS011;59939;52.516;13.420;2023-06-19T02:28:46;21.02;;;15.55;;
72065;SDS011;59939;52.516;13.420;2023-06-19T02:31:51;22.75;;;15.88;;
72065;SDS011;59939;52.516;13.420;2023-06-19T02:34:55;22.95;;;15.38;;
72065;SDS011;59939;52.516;13.420;2023-06-19T02:37:59;22.50;;;15.75;;
72065;SDS011;59939;52.516;13.420;2023-06-19T02:41:07;20.98;;;14.55;;
72065;SDS011;59939;52.516;13.420;2023-06-19T02:44:12;23.83;;;15.88;;
72065;SDS011;59939;52.516;13.420;2023-06-19T02:47:16;22.40;;;16.13;;
72065;SDS011;59939;52.516;13.420;2023-06-19T02:50:27;21.58;;;16.90;;
72065;SDS011;59939;52.516;13.420;2023-06-19T02:53:32;22.10;;;16.17;;
72065;SDS011;59939;52.516;13.420;2023-06-19T02:56:37;24.38;;;17.55;;
72065;SDS011;59939;52.516;13.420;2023-06-19T02:59:42;22.48;;;15.25;;
72065;SDS011;59939;52.516;13.420;2023-06-19T03:02:46;24.33;;;18.65;;
72065;SDS011;59939;52.516;13.420;2023-06-19T03:06:01;23.45;;;16.00;;
72065;SDS011;59939;52.516;13.420;2023-06-19T03:09:06;21.88;;;15.98;;
72065;SDS011;59939;52.516;13.420;2023-06-19T03:12:15;22.20;;;16.08;;
72065;SDS011;59939;52.516;13.420;2023-06-19T03:15:20;27.45;;;16.55;;
72065;SDS011;59939;52.516;13.420;2023-06-19T03:18:26;23.00;;;16.77;;
72065;SDS011;59939;52.516;13.420;2023-06-19T03:21:30;24.95;;;16.00;;
72065;SDS011;59939;52.516;13.420;2023-06-19T03:24:35;22.65;;;16.02;;
72065;SDS011;59939;52.516;13.420;2023-06-19T03:28:08;26.17;;;17.65;;
72065;SDS011;59939;52.516;13.420;2023-06-19T03:31:14;24.90;;;16.92;;
72065;SDS011;59939;52.516;13.420;2023-06-19T03:34:19;24.15;;;16.38;;
72065;SDS011;59939;52.516;13.420;2023-06-19T03:37:25;22.20;;;15.48;;
72065;SDS011;59939;52.516;13.420;2023-06-19T03:40:29;22.70;;;16.42;;
72065;SDS011;59939;52.516;13.420;2023-06-19T03:43:34;23.10;;;16.02;;
72065;SDS011;59939;52.516;13.420;2023-06-19T03:46:46;23.63;;;16.85;;
72065;SDS011;59939;52.516;13.420;2023-06-19T03:49:59;20.83;;;15.68;;
72065;SDS011;59939;52.516;13.420;2023-06-19T03:53:10;23.63;;;15.98;;
72065;SDS011;59939;52.516;13.420;2023-06-19T03:56:16;22.10;;;17.27;;
72065;SDS011;59939;52.516;13.420;2023-06-19T03:59:21;24.00;;;16.83;;
72065;SDS011;59939;52.516;13.420;2023-06-19T04:02:25;22.17;;;16.27;;
72065;SDS011;59939;52.516;13.420;2023-06-19T04:05:31;25.05;;;16.17;;
72065;SDS011;59939;52.516;13.420;2023-06-19T04:08:37;22.20;;;16.75;;
72065;SDS011;59939;52.516;13.420;2023-06-19T04:11:42;20.98;;;15.23;;
72065;SDS011;59939;52.516;13.420;2023-06-19T04:14:46;23.70;;;15.43;;
72065;SDS011;59939;52.516;13.420;2023-06-19T04:17:50;21.33;;;14.73;;
72065;SDS011;59939;52.516;13.420;2023-06-19T04:20:55;21.10;;;15.43;;
72065;SDS011;59939;52.516;13.420;2023-06-19T04:23:59;22.05;;;14.98;;
72065;SDS011;59939;52.516;13.420;2023-06-19T04:27:03;23.85;;;14.55;;
72065;SDS011;59939;52.516;13.420;2023-06-19T04:30:08;20.77;;;15.48;;
72065;SDS011;59939;52.516;13.420;2023-06-19T04:33:14;21.45;;;14.77;;
72065;SDS011;59939;52.516;13.420;2023-06-19T04:36:25;22.60;;;14.68;;
72065;SDS011;59939;52.516;13.420;2023-06-19T04:39:30;22.10;;;15.65;;
72065;SDS011;59939;52.516;13.420;2023-06-19T04:42:34;26.13;;;16.33;;
72065;SDS011;59939;52.516;13.420;2023-06-19T04:45:42;21.77;;;15.43;;
72065;SDS011;59939;52.516;13.420;2023-06-19T04:48:46;21.23;;;15.43;;
72065;SDS011;59939;52.516;13.420;2023-06-19T04:51:54;24.65;;;15.45;;
72065;SDS011;59939;52.516;13.420;2023-06-19T04:54:59;24.83;;;16.80;;
72065;SDS011;59939;52.516;13.420;2023-06-19T04:58:10;22.42;;;15.18;;
72065;SDS011;59939;52.516;13.420;2023-06-19T05:01:15;22.27;;;15.65;;
72065;SDS011;59939;52.516;13.420;2023-06-19T05:04:19;24.33;;;15.77;;
72065;SDS011;59939;52.516;13.420;2023-06-19T05:07:23;21.85;;;16.27;;
72065;SDS011;59939;52.516;13.420;2023-06-19T05:10:27;23.33;;;16.27;;
72065;SDS011;59939;52.516;13.420;2023-06-19T05:13:32;21.60;;;15.45;;
72065;SDS011;59939;52.516;13.420;2023-06-19T05:16:37;21.50;;;15.27;;
72065;SDS011;59939;52.516;13.420;2023-06-19T05:19:45;23.30;;;16.13;;
72065;SDS011;59939;52.516;13.420;2023-06-19T05:22:49;22.08;;;15.55;;
72065;SDS011;59939;52.516;13.420;2023-06-19T05:25:54;24.13;;;16.27;;
72065;SDS011;59939;52.516;13.420;2023-06-19T05:28:58;22.13;;;15.73;;
72065;SDS011;59939;52.516;13.420;2023-06-19T05:32:03;21.92;;;16.10;;
72065;SDS011;59939;52.516;13.420;2023-06-19T05:35:09;21.90;;;15.70;;
72065;SDS011;59939;52.516;13.420;2023-06-19T05:38:13;27.45;;;16.58;;
72065;SDS011;59939;52.516;13.420;2023-06-19T05:41:18;22.05;;;16.40;;
72065;SDS011;59939;52.516;13.420;2023-06-19T05:44:22;25.20;;;15.77;;
72065;SDS011;59939;52.516;13.420;2023-06-19T05:47:26;23.50;;;16.48;;
72065;SDS011;59939;52.516;13.420;2023-06-19T05:50:32;26.98;;;16.08;;
72065;SDS011;59939;52.516;13.420;2023-06-19T05:53:36;25.35;;;17.13;;
72065;SDS011;59939;52.516;13.420;2023-06-19T05:56:45;25.27;;;17.13;;
72065;SDS011;59939;52.516;13.420;2023-06-19T05:59:50;23.65;;;15.93;;
72065;SDS011;59939;52.516;13.420;2023-06-19T06:03:02;25.80;;;17.38;;
72065;SDS011;59939;52.516;13.420;2023-06-19T06:06:07;25.15;;;17.02;;
72065;SDS011;59939;52.516;13.420;2023-06-19T06:09:11;21.63;;;16.08;;
72065;SDS011;59939;52.516;13.420;2023-06-19T06:12:29;27.60;;;19.08;;
72065;SDS011;59939;52.516;13.420;2023-06-19T06:15:33;24.83;;;16.40;;
72065;SDS011;59939;52.516;13.420;2023-06-19T06:18:38;27.52;;;16.60;;
72065;SDS011;59939;52.516;13.420;2023-06-19T06:21:42;24.70;;;17.55;;
72065;SDS011;59939;52.516;13.420;2023-06-19T06:24:47;26.08;;;17.70;;
72065;SDS011;59939;52.516;13.420;2023-06-19T06:27:59;23.77;;;16.30;;
72065;SDS011;59939;52.516;13.420;2023-06-19T06:31:03;24.83;;;18.00;;
72065;SDS011;59939;52.516;13.420;2023-06-19T06:34:07;24.58;;;17.52;;
72065;SDS011;59939;52.516;13.420;2023-06-19T06:37:12;25.17;;;17.60;;
72065;SDS011;59939;52.516;13.420;2023-06-19T06:40:17;25.17;;;17.30;;
72065;SDS011;59939;52.516;13.420;2023-06-19T06:43:21;27.58;;;17.02;;
72065;SDS011;59939;52.516;13.420;2023-06-19T06:46:25;23.63;;;16.35;;
72065;SDS011;59939;52.516;13.420;2023-06-19T06:49:30;25.48;;;16.42;;
72065;SDS011;59939;52.516;13.420;2023-06-19T06:52:34;24.00;;;16.88;;
72065;SDS011;59939;52.516;13.420;2023-06-19T06:55:40;24.75;;;17.77;;
72065;SDS011;59939;52.516;13.420;2023-06-19T06:58:45;25.42;;;17.55;;
72065;SDS011;59939;52.516;13.420;2023-06-19T07:01:51;24.35;;;17.27;;
72065;SDS011;59939;52.516;13.420;2023-06-19T07:04:59;24.40;;;17.45;;
72065;SDS011;59939;52.516;13.420;2023-06-19T07:08:04;28.17;;;17.20;;
72065;SDS011;59939;52.516;13.420;2023-06-19T07:11:14;24.60;;;16.90;;
72065;SDS011;59939;52.516;13.420;2023-06-19T07:14:19;23.95;;;16.30;;
72065;SDS011;59939;52.516;13.420;2023-06-19T07:17:27;23.13;;;16.52;;
72065;SDS011;59939;52.516;13.420;2023-06-19T07:20:31;21.73;;;16.80;;
72065;SDS011;59939;52.516;13.420;2023-06-19T07:23:35;27.45;;;16.50;;
72065;SDS011;59939;52.516;13.420;2023-06-19T07:26:46;22.33;;;16.27;;
72065;SDS011;59939;52.516;13.420;2023-06-19T07:29:50;28.27;;;16.83;;
72065;SDS011;59939;52.516;13.420;2023-06-19T07:32:54;25.15;;;17.40;;
72065;SDS011;59939;52.516;13.420;2023-06-19T07:35:58;23.30;;;16.63;;
72065;SDS011;59939;52.516;13.420;2023-06-19T07:39:05;25.25;;;16.85;;
72065;SDS011;59939;52.516;13.420;2023-06-19T07:42:09;26.27;;;15.35;;
72065;SDS011;59939;52.516;13.420;2023-06-19T07:45:16;25.05;;;15.75;;
72065;SDS011;59939;52.516;13.420;2023-06-19T07:48:33;21.58;;;16.20;;
72065;SDS011;59939;52.516;13.420;2023-06-19T07:51:52;24.95;;;16.83;;
72065;SDS011;59939;52.516;13.420;2023-06-19T07:54:57;26.35;;;16.73;;
72065;SDS011;59939;52.516;13.420;2023-06-19T07:58:03;21.63;;;15.32;;
72065;SDS011;59939;52.516;13.420;2023-06-19T08:01:07;22.42;;;15.70;;
72065;SDS011;59939;52.516;13.420;2023-06-19T08:04:11;21.98;;;14.98;;
72065;SDS011;59939;52.516;13.420;2023-06-19T08:07:29;21.63;;;14.82;;
72065;SDS011;59939;52.516;13.420;2023-06-19T08:10:39;25.25;;;15.60;;
72065;SDS011;59939;52.516;13.420;2023-06-19T08:13:53;21.98;;;15.27;;
72065;SDS011;59939;52.516;13.420;2023-06-19T08:16:57;21.77;;;15.15;;
72065;SDS011;59939;52.516;13.420;2023-06-19T08:20:01;23.95;;;15.27;;
72065;SDS011;59939;52.516;13.420;2023-06-19T08:23:06;20.50;;;14.80;;
72065;SDS011;59939;52.516;13.420;2023-06-19T08:26:11;24.45;;;14.75;;
72065;SDS011;59939;52.516;13.420;2023-06-19T08:29:22;21.98;;;15.65;;
72065;SDS011;59939;52.516;13.420;2023-06-19T08:32:26;23.30;;;14.73;;
72065;SDS011;59939;52.516;13.420;2023-06-19T08:35:30;20.23;;;14.20;;
72065;SDS011;59939;52.516;13.420;2023-06-19T08:38:38;20.60;;;14.02;;
72065;SDS011;59939;52.516;13.420;2023-06-19T08:41:44;27.90;;;15.30;;
72065;SDS011;59939;52.516;13.420;2023-06-19T08:44:48;22.38;;;14.88;;
72065;SDS011;59939;52.516;13.420;2023-06-19T08:47:58;24.90;;;15.07;;
72065;SDS011;59939;52.516;13.420;2023-06-19T08:51:02;21.95;;;13.65;;
72065;SDS011;59939;52.516;13.420;2023-06-19T08:54:08;23.38;;;13.95;;
72065;SDS011;59939;52.516;13.420;2023-06-19T08:57:15;20.20;;;14.18;;
72065;SDS011;59939;52.516;13.420;2023-06-19T09:00:29;22.95;;;14.32;;
72065;SDS011;59939;52.516;13.420;2023-06-19T09:03:35;20.85;;;13.73;;
72065;SDS011;59939;52.516;13.420;2023-06-19T09:06:53;21.17;;;13.50;;
72065;SDS011;59939;52.516;13.420;2023-06-19T09:09:59;22.10;;;15.30;;
72065;SDS011;59939;52.516;13.420;2023-06-19T09:13:03;20.98;;;14.00;;
72065;SDS011;59939;52.516;13.420;2023-06-19T09:16:10;23.33;;;14.20;;
72065;SDS011;59939;52.516;13.420;2023-06-19T09:19:20;20.88;;;13.90;;
72065;SDS011;59939;52.516;13.420;2023-06-19T09:22:24;20.70;;;13.27;;
72065;SDS011;59939;52.516;13.420;2023-06-19T09:25:52;22.52;;;13.77;;
72065;SDS011;59939;52.516;13.420;2023-06-19T09:29:09;20.30;;;14.13;;
72065;SDS011;59939;52.516;13.420;2023-06-19T09:35:19;19.40;;;13.23;;
72065;SDS011;59939;52.516;13.420;2023-06-19T09:38:25;21.75;;;14.73;;
72065;SDS011;59939;52.516;13.420;2023-06-19T09:41:46;20.05;;;14.20;;
72065;SDS011;59939;52.516;13.420;2023-06-19T09:44:51;23.77;;;15.77;;
72065;SDS011;59939;52.516;13.420;2023-06-19T09:47:59;21.52;;;15.02;;
72065;SDS011;59939;52.516;13.420;2023-06-19T09:51:22;21.70;;;14.57;;
72065;SDS011;59939;52.516;13.420;2023-06-19T09:54:30;20.00;;;13.88;;
72065;SDS011;59939;52.516;13.420;2023-06-19T09:57:42;20.92;;;14.88;;
72065;SDS011;59939;52.516;13.420;2023-06-19T10:00:47;25.67;;;16.67;;
72065;SDS011;59939;52.516;13.420;2023-06-19T10:04:05;22.58;;;15.20;;
72065;SDS011;59939;52.516;13.420;2023-06-19T10:07:15;21.25;;;15.18;;
72065;SDS011;59939;52.516;13.420;2023-06-19T10:10:23;22.77;;;15.90;;
72065;SDS011;59939;52.516;13.420;2023-06-19T10:13:34;23.92;;;16.10;;
72065;SDS011;59939;52.516;13.420;2023-06-19T10:16:40;21.95;;;15.02;;
72065;SDS011;59939;52.516;13.420;2023-06-19T10:19:49;24.15;;;15.65;;
72065;SDS011;59939;52.516;13.420;2023-06-19T10:22:56;21.48;;;14.63;;
72065;SDS011;59939;52.516;13.420;2023-06-19T10:26:01;20.35;;;15.30;;
72065;SDS011;59939;52.516;13.420;2023-06-19T10:29:21;23.67;;;15.38;;
72065;SDS011;59939;52.516;13.420;2023-06-19T10:32:25;22.40;;;15.55;;
72065;SDS011;59939;52.516;13.420;2023-06-19T10:35:36;20.60;;;14.30;;
72065;SDS011;59939;52.516;13.420;2023-06-19T10:38:42;27.70;;;16.60;;
72065;SDS011;59939;52.516;13.420;2023-06-19T10:41:51;20.10;;;14.65;;
72065;SDS011;59939;52.516;13.420;2023-06-19T10:45:01;25.35;;;15.85;;
72065;SDS011;59939;52.516;13.420;2023-06-19T10:48:06;20.25;;;15.00;;
72065;SDS011;59939;52.516;13.420;2023-06-19T10:51:10;22.58;;;15.27;;
72065;SDS011;59939;52.516;13.420;2023-06-19T10:54:15;23.00;;;15.13;;
72065;SDS011;59939;52.516;13.420;2023-06-19T10:57:25;20.27;;;14.30;;
72065;SDS011;59939;52.516;13.420;2023-06-19T11:00:30;20.27;;;14.48;;
72065;SDS011;59939;52.516;13.420;2023-06-19T11:03:34;19.20;;;14.25;;
72065;SDS011;59939;52.516;13.420;2023-06-19T11:06:39;21.17;;;14.25;;
72065;SDS011;59939;52.516;13.420;2023-06-19T11:09:43;21.00;;;13.80;;
72065;SDS011;59939;52.516;13.420;2023-06-19T11:13:01;19.88;;;14.30;;
72065;SDS011;59939;52.516;13.420;2023-06-19T11:16:05;18.60;;;13.02;;
72065;SDS011;59939;52.516;13.420;2023-06-19T11:19:18;19.42;;;13.20;;
72065;SDS011;59939;52.516;13.420;2023-06-19T11:22:38;19.80;;;13.30;;
72065;SDS011;59939;52.516;13.420;2023-06-19T11:25:44;18.73;;;12.30;;
72065;SDS011;59939;52.516;13.420;2023-06-19T11:28:49;18.73;;;12.10;;
72065;SDS011;59939;52.516;13.420;2023-06-19T11:32:10;20.08;;;13.40;;
72065;SDS011;59939;52.516;13.420;2023-06-19T11:35:17;19.67;;;13.10;;
72065;SDS011;59939;52.516;13.420;2023-06-19T11:38:22;20.48;;;13.38;;
72065;SDS011;59939;52.516;13.420;2023-06-19T11:41:27;18.55;;;12.40;;
72065;SDS011;59939;52.516;13.420;2023-06-19T11:44:53;19.75;;;12.50;;
72065;SDS011;59939;52.516;13.420;2023-06-19T11:48:04;19.48;;;13.23;;
72065;SDS011;59939;52.516;13.420;2023-06-19T11:51:09;17.92;;;12.27;;
72065;SDS011;59939;52.516;13.420;2023-06-19T11:54:20;17.10;;;11.63;;
72065;SDS011;59939;52.516;13.420;2023-06-19T11:57:24;19.58;;;12.02;;
72065;SDS011;59939;52.516;13.420;2023-06-19T12:00:30;18.52;;;12.93;;
72065;SDS011;59939;52.516;13.420;2023-06-19T12:03:34;19.13;;;11.60;;
72065;SDS011;59939;52.516;13.420;2023-06-19T12:06:38;18.15;;;11.50;;
72065;SDS011;59939;52.516;13.420;2023-06-19T12:09:42;15.98;;;10.98;;
72065;SDS011;59939;52.516;13.420;2023-06-19T12:12:47;17.02;;;11.50;;
72065;SDS011;59939;52.516;13.420;2023-06-19T12:15:53;16.90;;;10.77;;
72065;SDS011;59939;52.516;13.420;2023-06-19T12:18:59;18.05;;;11.20;;
72065;SDS011;59939;52.516;13.420;2023-06-19T12:22:03;16.98;;;11.05;;
72065;SDS011;59939;52.516;13.420;2023-06-19T12:25:08;16.23;;;10.98;;
72065;SDS011;59939;52.516;13.420;2023-06-19T12:28:12;16.50;;;9.80;;
72065;SDS011;59939;52.516;13.420;2023-06-19T12:31:20;16.25;;;9.95;;
72065;SDS011;59939;52.516;13.420;2023-06-19T12:34:24;17.15;;;10.25;;
72065;SDS011;59939;52.516;13.420;2023-06-19T12:37:34;16.50;;;10.60;;
72065;SDS011;59939;52.516;13.420;2023-06-19T12:40:39;17.05;;;10.10;;
72065;SDS011;59939;52.516;13.420;2023-06-19T12:43:43;18.05;;;10.48;;
72065;SDS011;59939;52.516;13.420;2023-06-19T12:46:48;15.15;;;9.32;;
72065;SDS011;59939;52.516;13.420;2023-06-19T12:53:48;16.92;;;9.75;;
72065;SDS011;59939;52.516;13.420;2023-06-19T12:56:54;15.60;;;9.90;;
72065;SDS011;59939;52.516;13.420;2023-06-19T12:59:59;15.95;;;10.38;;
72065;SDS011;59939;52.516;13.420;2023-06-19T13:03:03;16.85;;;9.73;;
72065;SDS011;59939;52.516;13.420;2023-06-19T13:06:07;16.10;;;10.70;;
72065;SDS011;59939;52.516;13.420;2023-06-19T13:09:12;17.30;;;11.32;;
72065;SDS011;59939;52.516;13.420;2023-06-19T13:12:16;17.33;;;10.57;;
72065;SDS011;59939;52.516;13.420;2023-06-19T13:15:20;17.13;;;11.35;;
72065;SDS011;59939;52.516;13.420;2023-06-19T13:18:26;17.88;;;11.05;;
72065;SDS011;59939;52.516;13.420;2023-06-19T13:21:30;15.93;;;10.23;;
72065;SDS011;59939;52.516;13.420;2023-06-19T13:24:35;17.40;;;9.88;;
72065;SDS011;59939;52.516;13.420;2023-06-19T13:27:39;16.92;;;10.45;;
72065;SDS011;59939;52.516;13.420;2023-06-19T13:30:43;15.18;;;9.77;;
72065;SDS011;59939;52.516;13.420;2023-06-19T13:33:53;17.05;;;10.85;;
72065;SDS011;59939;52.516;13.420;2023-06-19T13:36:59;19.75;;;11.07;;
72065;SDS011;59939;52.516;13.420;2023-06-19T13:40:10;15.55;;;10.90;;
72065;SDS011;59939;52.516;13.420;2023-06-19T13:43:16;17.83;;;11.68;;
72065;SDS011;59939;52.516;13.420;2023-06-19T13:46:28;17.88;;;11.48;;
72065;SDS011;59939;52.516;13.420;2023-06-19T13:49:35;18.75;;;11.15;;
72065;SDS011;59939;52.516;13.420;2023-06-19T13:52:39;18.13;;;11.20;;
72065;SDS011;59939;52.516;13.420;2023-06-19T13:55:43;17.40;;;11.45;;
72065;SDS011;59939;52.516;13.420;2023-06-19T13:58:47;20.17;;;12.07;;
72065;SDS011;59939;52.516;13.420;2023-06-19T14:01:52;20.05;;;11.38;;
72065;SDS011;59939;52.516;13.420;2023-06-19T14:04:56;17.02;;;11.32;;
72065;SDS011;59939;52.516;13.420;2023-06-19T14:08:03;16.35;;;11.00;;
72065;SDS011;59939;52.516;13.420;2023-06-19T14:11:07;19.20;;;11.50;;
72065;SDS011;59939;52.516;13.420;2023-06-19T14:14:11;18.90;;;11.20;;
72065;SDS011;59939;52.516;13.420;2023-06-19T14:17:17;18.10;;;11.35;;
72065;SDS011;59939;52.516;13.420;2023-06-19T14:20:21;18.08;;;11.32;;
72065;SDS011;59939;52.516;13.420;2023-06-19T14:23:25;19.67;;;11.15;;
72065;SDS011;59939;52.516;13.420;2023-06-19T14:26:40;19.15;;;11.75;;
72065;SDS011;59939;52.516;13.420;2023-06-19T14:29:45;18.42;;;12.57;;
72065;SDS011;59939;52.516;13.420;2023-06-19T14:32:50;21.00;;;12.57;;
72065;SDS011;59939;52.516;13.420;2023-06-19T14:35:54;19.90;;;12.48;;
72065;SDS011;59939;52.516;13.420;2023-06-19T14:39:02;20.02;;;11.45;;
72065;SDS011;59939;52.516;13.420;2023-06-19T14:42:06;17.92;;;12.32;;
72065;SDS011;59939;52.516;13.420;2023-06-19T14:45:10;18.63;;;11.82;;
72065;SDS011;59939;52.516;13.420;2023-06-19T14:48:14;18.85;;;12.27;;
72065;SDS011;59939;52.516;13.420;2023-06-19T14:51:31;16.52;;;11.63;;
72065;SDS011;59939;52.516;13.420;2023-06-19T14:54:38;17.27;;;11.90;;
72065;SDS011;59939;52.516;13.420;2023-06-19T14:57:42;18.77;;;11.55;;
72065;SDS011;59939;52.516;13.420;2023-06-19T15:00:46;16.77;;;10.93;;
72065;SDS011;59939;52.516;13.420;2023-06-19T15:03:59;17.60;;;11.35;;
72065;SDS011;59939;52.516;13.420;2023-06-19T15:07:03;19.92;;;11.27;;
72065;SDS011;59939;52.516;13.420;2023-06-19T15:10:07;17.80;;;10.30;;
72065;SDS011;59939;52.516;13.420;2023-06-19T15:13:11;17.02;;;10.88;;
72065;SDS011;59939;52.516;13.420;2023-06-19T15:16:17;21.73;;;11.63;;
72065;SDS011;59939;52.516;13.420;2023-06-19T15:19:25;17.55;;;11.88;;
72065;SDS011;59939;52.516;13.420;2023-06-19T15:22:32;16.73;;;11.23;;
72065;SDS011;59939;52.516;13.420;2023-06-19T15:25:49;19.58;;;12.32;;
72065;SDS011;59939;52.516;13.420;2023-06-19T15:28:56;19.08;;;11.30;;
72065;SDS011;59939;52.516;13.420;2023-06-19T15:32:08;24.10;;;10.93;;
72065;SDS011;59939;52.516;13.420;2023-06-19T15:35:14;17.25;;;11.77;;
72065;SDS011;59939;52.516;13.420;2023-06-19T15:38:19;18.17;;;12.10;;
72065;SDS011;59939;52.516;13.420;2023-06-19T15:41:23;17.60;;;11.45;;
72065;SDS011;59939;52.516;13.420;2023-06-19T15:44:29;19.15;;;11.07;;
72065;SDS011;59939;52.516;13.420;2023-06-19T15:47:33;18.42;;;11.55;;
72065;SDS011;59939;52.516;13.420;2023-06-19T15:50:38;17.85;;;11.82;;
72065;SDS011;59939;52.516;13.420;2023-06-19T15:53:42;19.50;;;11.73;;
72065;SDS011;59939;52.516;13.420;2023-06-19T15:56:47;16.90;;;11.90;;
72065;SDS011;59939;52.516;13.420;2023-06-19T16:00:00;21.05;;;12.48;;
72065;SDS011;59939;52.516;13.420;2023-06-19T16:03:05;16.75;;;11.43;;
72065;SDS011;59939;52.516;13.420;2023-06-19T16:06:10;17.65;;;11.65;;
72065;SDS011;59939;52.516;13.420;2023-06-19T16:09:16;16.67;;;11.35;;
72065;SDS011;59939;52.516;13.420;2023-06-19T16:12:21;21.17;;;12.65;;
72065;SDS011;59939;52.516;13.420;2023-06-19T16:15:27;20.25;;;12.30;;
72065;SDS011;59939;52.516;13.420;2023-06-19T16:18:34;17.58;;;11.63;;
72065;SDS011;59939;52.516;13.420;2023-06-19T16:21:51;18.45;;;12.68;;
72065;SDS011;59939;52.516;13.420;2023-06-19T16:24:56;18.15;;;11.50;;
72065;SDS011;59939;52.516;13.420;2023-06-19T16:28:07;20.80;;;12.18;;
72065;SDS011;59939;52.516;13.420;2023-06-19T16:34:54;18.02;;;11.65;;
72065;SDS011;59939;52.516;13.420;2023-06-19T16:38:01;17.27;;;11.35;;
72065;SDS011;59939;52.516;13.420;2023-06-19T16:41:05;17.38;;;11.15;;
72065;SDS011;59939;52.516;13.420;2023-06-19T16:44:12;19.90;;;11.73;;
72065;SDS011;59939;52.516;13.420;2023-06-19T16:47:23;18.40;;;11.10;;
72065;SDS011;59939;52.516;13.420;2023-06-19T16:50:34;18.58;;;11.40;;
72065;SDS011;59939;52.516;13.420;2023-06-19T16:53:38;16.35;;;10.20;;
72065;SDS011;59939;52.516;13.420;2023-06-19T16:56:43;18.58;;;12.18;;
72065;SDS011;59939;52.516;13.420;2023-06-19T16:59:48;18.15;;;12.68;;
72065;SDS011;59939;52.516;13.420;2023-06-19T17:03:00;19.55;;;11.48;;
72065;SDS011;59939;52.516;13.420;2023-06-19T17:06:08;23.33;;;13.63;;
72065;SDS011;59939;52.516;13.420;2023-06-19T17:09:12;19.10;;;12.77;;
72065;SDS011;59939;52.516;13.420;2023-06-19T17:12:16;20.48;;;13.68;;
72065;SDS011;59939;52.516;13.420;2023-06-19T17:15:20;21.80;;;11.90;;
72065;SDS011;59939;52.516;13.420;2023-06-19T17:18:25;20.42;;;12.35;;
72065;SDS011;59939;52.516;13.420;2023-06-19T17:21:29;18.70;;;13.75;;
72065;SDS011;59939;52.516;13.420;2023-06-19T17:24:33;18.08;;;13.20;;
72065;SDS011;59939;52.516;13.420;2023-06-19T17:27:37;19.02;;;12.82;;
72065;SDS011;59939;52.516;13.420;2023-06-19T17:30:41;17.77;;;11.70;;
72065;SDS011;59939;52.516;13.420;2023-06-19T17:33:46;18.35;;;12.35;;
72065;SDS011;59939;52.516;13.420;2023-06-19T17:36:52;17.55;;;12.95;;
72065;SDS011;59939;52.516;13.420;2023-06-19T17:39:56;20.50;;;13.15;;
72065;SDS011;59939;52.516;13.420;2023-06-19T17:43:01;20.55;;;12.85;;
72065;SDS011;59939;52.516;13.420;2023-06-19T17:46:05;19.50;;;12.57;;
72065;SDS011;59939;52.516;13.420;2023-06-19T17:49:09;19.23;;;12.82;;
72065;SDS011;59939;52.516;13.420;2023-06-19T17:52:16;17.92;;;12.98;;
72065;SDS011;59939;52.516;13.420;2023-06-19T17:55:20;18.00;;;12.75;;
72065;SDS011;59939;52.516;13.420;2023-06-19T17:58:24;21.17;;;13.52;;
72065;SDS011;59939;52.516;13.420;2023-06-19T18:01:34;21.67;;;11.75;;
72065;SDS011;59939;52.516;13.420;2023-06-19T18:04:42;20.33;;;12.75;;
72065;SDS011;59939;52.516;13.420;2023-06-19T18:07:46;19.40;;;12.57;;